createdAt,value
2019-03-28T00:00:33.361Z,2.90
2019-03-28T00:03:02.141Z,2.90
2019-03-28T00:05:30.696Z,2.90
2019-03-28T00:07:59.202Z,2.90
2019-03-28T00:10:27.638Z,2.90
2019-03-28T00:12:56.252Z,3.00
2019-03-28T00:15:24.684Z,3.00
2019-03-28T00:17:54.498Z,2.90
2019-03-28T00:20:23.001Z,2.80
2019-03-28T00:22:54.042Z,2.70
2019-03-28T00:25:24.277Z,2.60
2019-03-28T00:27:52.746Z,2.60
2019-03-28T00:30:21.765Z,2.50
2019-03-28T00:32:50.215Z,2.50
2019-03-28T00:35:18.640Z,2.50
2019-03-28T00:37:47.112Z,2.60
2019-03-28T00:40:15.714Z,2.50
2019-03-28T00:42:44.191Z,2.70
2019-03-28T00:45:12.929Z,2.70
2019-03-28T00:47:41.484Z,2.60
2019-03-28T00:50:10.483Z,2.50
2019-03-28T00:52:38.986Z,2.40
2019-03-28T00:55:07.575Z,2.30
2019-03-28T00:57:36.103Z,2.30
2019-03-28T01:00:06.049Z,2.20
2019-03-28T01:02:34.503Z,2.20
2019-03-28T01:05:03.606Z,2.30
2019-03-28T01:07:32.030Z,2.30
2019-03-28T01:10:00.494Z,2.30
2019-03-28T01:12:28.935Z,2.20
2019-03-28T01:14:58.006Z,2.20
2019-03-28T01:17:26.678Z,2.20
2019-03-28T01:19:55.103Z,2.30
2019-03-28T01:22:23.569Z,2.30
2019-03-28T01:24:52.071Z,2.30
2019-03-28T01:27:20.536Z,2.40
2019-03-28T01:29:48.972Z,2.40
2019-03-28T01:32:17.410Z,2.40
2019-03-28T01:34:45.861Z,2.30
2019-03-28T01:37:14.382Z,2.30
2019-03-28T01:39:44.113Z,2.30
2019-03-28T01:42:12.565Z,2.20
2019-03-28T01:44:41.009Z,2.40
2019-03-28T01:47:09.441Z,2.50
2019-03-28T01:49:37.855Z,2.50
2019-03-28T01:52:06.293Z,2.40
2019-03-28T01:54:34.716Z,2.50
2019-03-28T01:57:10.913Z,2.40
2019-03-28T01:59:33.291Z,2.40
2019-03-28T02:02:01.751Z,2.40
2019-03-28T02:04:30.271Z,2.40
2019-03-28T02:06:59.166Z,2.40
2019-03-28T02:09:27.695Z,2.40
2019-03-28T02:11:56.138Z,2.40
2019-03-28T02:14:24.602Z,2.50
2019-03-28T02:16:53.034Z,2.60
2019-03-28T02:19:21.572Z,3.00
2019-03-28T02:21:50.099Z,3.00
2019-03-28T02:24:18.634Z,3.00
2019-03-28T02:26:47.091Z,3.00
2019-03-28T02:29:18.281Z,3.00
2019-03-28T02:31:49.134Z,3.10
2019-03-28T02:34:17.634Z,2.90
2019-03-28T02:36:46.063Z,2.90
2019-03-28T02:39:14.562Z,2.70
2019-03-28T02:41:43.003Z,2.70
2019-03-28T02:44:12.003Z,2.90
2019-03-28T02:46:40.737Z,2.80
2019-03-28T02:49:09.261Z,2.60
2019-03-28T02:51:37.805Z,2.50
2019-03-28T02:54:06.236Z,2.40
2019-03-28T02:56:34.771Z,2.30
2019-03-28T02:59:03.207Z,2.30
2019-03-28T03:01:32.680Z,2.10
2019-03-28T03:04:01.135Z,2.10
2019-03-28T03:06:29.652Z,2.00
2019-03-28T03:08:58.116Z,2.00
2019-03-28T03:11:26.628Z,2.00
2019-03-28T03:13:55.034Z,2.00
2019-03-28T03:16:23.510Z,2.00
2019-03-28T03:18:51.967Z,2.00
2019-03-28T03:21:20.478Z,2.20
2019-03-28T03:23:48.995Z,2.20
2019-03-28T03:26:17.462Z,2.10
2019-03-28T03:28:45.873Z,2.10
2019-03-28T03:31:20.635Z,2.00
2019-03-28T03:33:44.459Z,1.90
2019-03-28T03:36:12.899Z,1.90
2019-03-28T03:38:41.321Z,1.80
2019-03-28T03:41:09.813Z,1.70
2019-03-28T03:43:38.296Z,1.70
2019-03-28T03:46:06.751Z,1.80
2019-03-28T03:48:35.218Z,1.80
2019-03-28T03:51:03.709Z,1.80
2019-03-28T03:53:32.125Z,1.80
2019-03-28T03:56:00.659Z,1.90
2019-03-28T03:58:29.105Z,2.00
2019-03-28T04:00:57.589Z,1.90
2019-03-28T04:03:26.102Z,1.90
2019-03-28T04:05:54.518Z,1.90
2019-03-28T04:08:22.971Z,2.00
2019-03-28T04:10:51.508Z,2.00
2019-03-28T04:13:19.926Z,2.00
2019-03-28T04:15:48.426Z,2.10
2019-03-28T04:18:16.904Z,2.10
2019-03-28T04:20:45.384Z,2.10
2019-03-28T04:23:13.888Z,2.10
2019-03-28T04:25:42.343Z,2.10
2019-03-28T04:28:10.902Z,2.10
2019-03-28T04:30:39.355Z,2.20
2019-03-28T04:33:07.800Z,2.20
2019-03-28T04:35:36.220Z,2.20
2019-03-28T04:38:04.754Z,2.20
2019-03-28T04:40:34.409Z,2.20
2019-03-28T04:43:03.012Z,2.30
2019-03-28T04:45:31.477Z,2.30
2019-03-28T04:48:00.367Z,2.30
2019-03-28T04:50:29.059Z,2.30
2019-03-28T04:52:58.659Z,2.30
2019-03-28T04:55:27.087Z,2.40
2019-03-28T04:57:55.639Z,2.30
2019-03-28T05:00:24.286Z,2.40
2019-03-28T05:02:52.710Z,2.30
2019-03-28T05:05:21.146Z,2.40
2019-03-28T05:07:49.586Z,2.50
2019-03-28T05:10:18.028Z,2.60
2019-03-28T05:12:46.477Z,2.60
2019-03-28T05:15:15.324Z,2.60
2019-03-28T05:17:43.804Z,2.60
2019-03-28T05:20:13.395Z,2.60
2019-03-28T05:22:42.125Z,2.80
2019-03-28T05:25:10.632Z,2.90
2019-03-28T05:27:59.372Z,3.00
2019-03-28T05:30:28.210Z,3.00
2019-03-28T05:32:56.813Z,2.90
2019-03-28T05:35:25.311Z,2.90
2019-03-28T05:37:53.735Z,3.00
2019-03-28T05:40:22.960Z,3.20
2019-03-28T05:42:51.474Z,3.10
2019-03-28T05:45:19.933Z,3.00
2019-03-28T05:47:48.357Z,2.90
2019-03-28T05:50:16.897Z,2.90
2019-03-28T05:52:45.547Z,3.10
2019-03-28T05:55:13.979Z,3.00
2019-03-28T05:57:42.500Z,3.10
2019-03-28T06:00:11.498Z,3.40
2019-03-28T06:02:40.220Z,3.70
2019-03-28T06:05:08.854Z,3.90
2019-03-28T06:07:37.559Z,4.30
2019-03-28T06:10:07.915Z,4.70
2019-03-28T06:12:36.471Z,4.90
2019-03-28T06:15:06.844Z,5.00
2019-03-28T06:17:35.354Z,5.30
2019-03-28T06:20:28.643Z,5.50
2019-03-28T06:22:57.158Z,5.70
2019-03-28T06:25:25.646Z,6.00
2019-03-28T06:27:54.112Z,6.10
2019-03-28T06:30:22.633Z,6.20
2019-03-28T06:32:51.225Z,6.30
2019-03-28T06:35:21.932Z,6.50
2019-03-28T06:37:51.437Z,6.60
2019-03-28T06:40:20.187Z,6.60
2019-03-28T06:42:48.638Z,6.80
2019-03-28T06:45:17.122Z,6.90
2019-03-28T06:47:45.574Z,6.80
2019-03-28T06:50:14.388Z,6.90
2019-03-28T06:52:42.871Z,7.00
2019-03-28T06:55:11.373Z,7.10
2019-03-28T06:57:39.794Z,7.30
2019-03-28T07:00:11.826Z,7.40
2019-03-28T07:02:40.390Z,7.40
2019-03-28T07:05:09.164Z,7.30
2019-03-28T07:07:37.599Z,7.20
2019-03-28T07:10:07.074Z,7.30
2019-03-28T07:12:35.624Z,7.30
2019-03-28T07:15:06.370Z,7.60
2019-03-28T07:17:54.190Z,7.40
2019-03-28T07:20:22.607Z,7.60
2019-03-28T07:22:51.054Z,7.70
2019-03-28T07:25:19.472Z,8.00
2019-03-28T07:27:47.916Z,8.10
2019-03-28T07:30:19.415Z,8.00
2019-03-28T07:32:48.079Z,8.20
2019-03-28T07:35:16.510Z,8.30
2019-03-28T07:37:44.969Z,8.40
2019-03-28T07:40:34.299Z,8.60
2019-03-28T07:43:02.771Z,8.30
2019-03-28T07:45:34.179Z,8.40
2019-03-28T07:48:20.707Z,8.40
2019-03-28T07:50:49.178Z,8.70
2019-03-28T07:53:19.850Z,8.80
2019-03-28T07:55:47.899Z,8.60
2019-03-28T07:58:16.377Z,8.70
2019-03-28T08:00:44.907Z,9.00
2019-03-28T08:03:13.442Z,9.20
2019-03-28T08:05:41.912Z,9.60
2019-03-28T08:08:10.343Z,9.90
2019-03-28T08:10:38.810Z,9.60
2019-03-28T08:13:07.315Z,9.90
2019-03-28T08:15:35.759Z,10.00
2019-03-28T08:18:04.281Z,10.00
2019-03-28T08:20:33.326Z,9.90
2019-03-28T08:23:02.028Z,9.80
2019-03-28T08:25:30.466Z,10.00
2019-03-28T08:27:58.888Z,10.10
2019-03-28T08:30:48.235Z,10.00
2019-03-28T08:33:16.663Z,10.00
2019-03-28T08:35:45.079Z,10.20
2019-03-28T08:38:14.074Z,10.00
2019-03-28T08:40:43.548Z,10.10
2019-03-28T08:43:15.849Z,10.00
2019-03-28T08:45:44.539Z,10.50
2019-03-28T08:48:13.157Z,10.20
2019-03-28T08:50:41.647Z,10.40
2019-03-28T08:53:10.487Z,10.40
2019-03-28T08:55:39.466Z,10.30
2019-03-28T08:58:07.933Z,11.20
2019-03-28T09:00:50.910Z,11.20
2019-03-28T09:03:06.568Z,11.80
2019-03-28T09:05:35.033Z,11.90
2019-03-28T09:08:03.747Z,12.20
2019-03-28T09:10:32.194Z,12.40
2019-03-28T09:13:00.699Z,12.60
2019-03-28T09:15:42.674Z,12.20
2019-03-28T09:18:00.376Z,11.90
2019-03-28T09:20:29.018Z,11.50
2019-03-28T09:22:57.683Z,11.30
2019-03-28T09:25:26.106Z,11.50
2019-03-28T09:27:54.658Z,11.30
2019-03-28T09:30:48.714Z,11.30
2019-03-28T09:33:10.949Z,11.30
2019-03-28T09:35:39.483Z,11.40
2019-03-28T09:38:08.139Z,11.40
2019-03-28T09:40:36.567Z,11.30
2019-03-28T09:43:05.089Z,11.50
2019-03-28T09:45:33.589Z,11.80
2019-03-28T09:48:02.106Z,11.60
2019-03-28T09:50:30.548Z,11.70
2019-03-28T09:52:59.022Z,11.50
2019-03-28T09:55:27.478Z,11.40
2019-03-28T09:57:55.931Z,11.70
2019-03-28T10:00:24.637Z,11.60
2019-03-28T10:02:53.131Z,11.50
2019-03-28T10:05:21.618Z,11.70
2019-03-28T10:08:09.665Z,11.70
2019-03-28T10:10:38.226Z,11.70
2019-03-28T10:13:06.680Z,11.40
2019-03-28T10:15:36.918Z,11.40
2019-03-28T10:18:05.409Z,11.50
2019-03-28T10:20:33.910Z,11.60
2019-03-28T10:23:02.439Z,11.50
2019-03-28T10:25:30.951Z,11.40
2019-03-28T10:27:59.417Z,11.50
2019-03-28T10:30:41.554Z,11.70
2019-03-28T10:33:10.101Z,11.80
2019-03-28T10:35:38.610Z,12.30
2019-03-28T10:38:07.186Z,12.20
2019-03-28T10:40:36.367Z,12.10
2019-03-28T10:43:05.069Z,12.30
2019-03-28T10:45:33.868Z,12.20
2019-03-28T10:48:02.560Z,12.20
2019-03-28T10:50:40.759Z,12.50
2019-03-28T10:53:01.333Z,12.40
2019-03-28T10:55:29.921Z,12.50
2019-03-28T10:57:58.578Z,12.60
2019-03-28T11:00:27.512Z,12.80
2019-03-28T11:02:56.098Z,13.10
2019-03-28T11:05:24.686Z,13.00
2019-03-28T11:07:54.682Z,13.20
2019-03-28T11:10:24.713Z,13.40
2019-03-28T11:12:53.211Z,13.00
2019-03-28T11:15:21.659Z,12.90
2019-03-28T11:17:50.158Z,13.10
2019-03-28T11:20:21.498Z,13.20
2019-03-28T11:22:49.992Z,13.40
2019-03-28T11:25:18.544Z,13.10
2019-03-28T11:27:47.079Z,13.20
2019-03-28T11:30:18.175Z,13.00
2019-03-28T11:32:46.018Z,13.20
2019-03-28T11:35:14.667Z,13.40
2019-03-28T11:40:12.990Z,13.90
2019-03-28T11:43:04.058Z,13.80
2019-03-28T11:45:32.618Z,14.20
2019-03-28T11:48:01.156Z,13.90
2019-03-28T11:50:29.719Z,13.50
2019-03-28T11:52:58.230Z,13.50
2019-03-28T11:55:26.780Z,13.40
2019-03-28T11:57:56.588Z,13.30
2019-03-28T12:00:25.254Z,13.40
2019-03-28T12:02:53.749Z,13.70
2019-03-28T12:05:22.254Z,14.00
2019-03-28T12:07:50.772Z,14.10
2019-03-28T12:10:19.490Z,14.00
2019-03-28T12:12:48.104Z,13.70
2019-03-28T12:15:16.765Z,13.40
2019-03-28T12:17:45.342Z,13.70
2019-03-28T12:20:13.878Z,13.90
2019-03-28T12:22:42.400Z,14.40
2019-03-28T12:25:11.698Z,13.70
2019-03-28T12:27:40.344Z,13.80
2019-03-28T12:30:11.168Z,13.80
2019-03-28T12:32:39.666Z,14.10
2019-03-28T12:35:08.896Z,14.40
2019-03-28T12:37:37.354Z,14.20
2019-03-28T12:40:10.346Z,14.20
2019-03-28T12:42:47.382Z,14.40
2019-03-28T12:45:16.262Z,14.20
2019-03-28T12:47:44.831Z,14.30
2019-03-28T12:50:14.422Z,14.60
2019-03-28T12:52:42.952Z,14.70
2019-03-28T12:55:11.802Z,14.80
2019-03-28T12:57:40.230Z,14.90
2019-03-28T13:00:10.334Z,15.00
2019-03-28T13:02:38.942Z,14.80
2019-03-28T13:05:10.726Z,14.70
2019-03-28T13:07:39.245Z,14.60
2019-03-28T13:10:10.268Z,14.60
2019-03-28T13:12:38.831Z,14.60
2019-03-28T13:15:08.174Z,14.60
2019-03-28T13:17:36.624Z,14.70
2019-03-28T13:20:09.948Z,14.40
2019-03-28T13:22:41.620Z,14.20
2019-03-28T13:25:10.800Z,14.30
2019-03-28T13:27:39.207Z,14.10
2019-03-28T13:30:20.417Z,14.20
2019-03-28T13:32:49.012Z,14.10
2019-03-28T13:35:17.472Z,14.30
2019-03-28T13:37:45.923Z,14.80
2019-03-28T13:40:14.912Z,14.80
2019-03-28T13:42:43.352Z,14.80
2019-03-28T13:45:12.462Z,14.60
2019-03-28T13:47:40.919Z,14.80
2019-03-28T13:50:10.993Z,14.90
2019-03-28T13:52:39.626Z,14.60
2019-03-28T13:55:08.183Z,14.90
2019-03-28T13:57:36.653Z,14.80
2019-03-28T14:00:11.978Z,14.90
2019-03-28T14:02:40.517Z,15.20
2019-03-28T14:05:09.321Z,15.10
2019-03-28T14:07:37.778Z,15.00
2019-03-28T14:10:07.544Z,14.80
2019-03-28T14:12:36.061Z,14.40
2019-03-28T14:15:05.938Z,14.10
2019-03-28T14:17:35.114Z,14.00
2019-03-28T14:20:06.737Z,13.90
2019-03-28T14:22:35.501Z,13.90
2019-03-28T14:25:05.947Z,13.90
2019-03-28T14:27:34.467Z,14.10
2019-03-28T14:30:03.298Z,14.30
2019-03-28T14:32:33.171Z,14.50
2019-03-28T14:35:01.777Z,14.50
2019-03-28T14:37:30.564Z,14.90
2019-03-28T14:39:59.149Z,15.00
2019-03-28T14:42:27.764Z,15.20
2019-03-28T14:44:59.281Z,15.30
2019-03-28T14:47:27.711Z,15.10
2019-03-28T14:49:56.261Z,15.00
2019-03-28T14:52:24.763Z,15.10
2019-03-28T14:54:53.304Z,15.10
2019-03-28T14:57:21.891Z,15.10
2019-03-28T14:59:50.517Z,15.20
2019-03-28T15:02:19.052Z,15.40
2019-03-28T15:04:47.634Z,15.10
2019-03-28T15:07:16.060Z,14.80
2019-03-28T15:09:44.581Z,14.90
2019-03-28T15:12:13.226Z,14.80
2019-03-28T15:14:41.681Z,14.80
2019-03-28T15:17:10.108Z,14.80
2019-03-28T15:19:38.545Z,14.80
2019-03-28T15:22:07.066Z,14.80
2019-03-28T15:24:35.524Z,14.80
2019-03-28T15:27:04.322Z,14.70
2019-03-28T15:29:32.926Z,14.70
2019-03-28T15:32:01.398Z,14.80
2019-03-28T15:34:30.406Z,14.90
2019-03-28T15:36:58.973Z,14.90
2019-03-28T15:39:27.413Z,14.80
2019-03-28T15:41:55.992Z,14.60
2019-03-28T15:44:24.480Z,14.60
2019-03-28T15:46:52.926Z,14.60
2019-03-28T15:49:21.386Z,14.70
2019-03-28T15:51:49.897Z,14.60
2019-03-28T15:54:18.427Z,14.50
2019-03-28T15:56:46.886Z,14.60
2019-03-28T15:59:15.349Z,14.60
2019-03-28T16:01:43.864Z,14.50
2019-03-28T16:04:12.503Z,14.50
2019-03-28T16:06:41.546Z,14.50
2019-03-28T16:09:10.414Z,14.50
2019-03-28T16:11:39.066Z,14.30
2019-03-28T16:14:07.644Z,14.20
2019-03-28T16:16:36.373Z,14.10
2019-03-28T16:19:05.747Z,14.10
2019-03-28T16:21:34.623Z,14.00
2019-03-28T16:24:03.149Z,14.00
2019-03-28T16:26:31.559Z,14.10
2019-03-28T16:29:00.130Z,14.00
2019-03-28T16:31:28.611Z,14.00
2019-03-28T16:34:06.809Z,14.10
2019-03-28T16:36:27.344Z,14.00
2019-03-28T16:38:56.091Z,13.90
2019-03-28T16:41:24.723Z,13.80
2019-03-28T16:43:53.175Z,13.80
2019-03-28T16:46:21.684Z,13.80
2019-03-28T16:48:50.119Z,13.80
2019-03-28T16:51:18.856Z,13.80
2019-03-28T16:53:47.300Z,13.70
2019-03-28T16:56:15.866Z,13.70
2019-03-28T16:58:44.297Z,13.60
2019-03-28T17:01:12.776Z,13.60
2019-03-28T17:03:41.363Z,13.60
2019-03-28T17:06:10.279Z,13.50
2019-03-28T17:08:40.639Z,13.50
2019-03-28T17:11:12.029Z,13.50
2019-03-28T17:13:39.535Z,13.40
2019-03-28T17:16:08.014Z,13.40
2019-03-28T17:18:36.517Z,13.40
2019-03-28T17:21:05.097Z,13.30
2019-03-28T17:23:34.501Z,13.20
2019-03-28T17:26:03.115Z,13.10
2019-03-28T17:28:31.734Z,13.10
2019-03-28T17:31:00.298Z,13.10
2019-03-28T17:33:28.871Z,13.00
2019-03-28T17:35:57.484Z,13.00
2019-03-28T17:38:26.047Z,13.00
2019-03-28T17:40:54.618Z,12.90
2019-03-28T17:43:23.956Z,12.90
2019-03-28T17:45:52.476Z,12.90
2019-03-28T17:48:20.940Z,12.70
2019-03-28T17:50:49.394Z,12.70
2019-03-28T17:53:18.078Z,12.70
2019-03-28T17:55:46.694Z,12.60
2019-03-28T17:58:15.156Z,12.60
2019-03-28T18:00:45.446Z,12.50
2019-03-28T18:03:14.679Z,12.40
2019-03-28T18:05:43.201Z,12.50
2019-03-28T18:08:11.626Z,12.50
2019-03-28T18:10:40.195Z,12.50
2019-03-28T18:13:08.691Z,12.50
2019-03-28T18:15:37.218Z,12.40
2019-03-28T18:18:05.807Z,12.50
2019-03-28T18:20:34.452Z,12.50
2019-03-28T18:23:02.929Z,12.40
2019-03-28T18:25:31.417Z,12.40
2019-03-28T18:27:59.942Z,12.30
2019-03-28T18:30:29.275Z,12.30
2019-03-28T18:32:57.736Z,12.30
2019-03-28T18:35:26.331Z,12.30
2019-03-28T18:37:54.826Z,12.20
2019-03-28T18:40:23.380Z,12.20
2019-03-28T18:42:51.813Z,12.10
2019-03-28T18:45:20.415Z,12.20
2019-03-28T18:47:48.865Z,12.20
2019-03-28T18:50:17.533Z,12.20
2019-03-28T18:52:46.003Z,12.10
2019-03-28T18:55:14.898Z,12.00
2019-03-28T18:57:43.389Z,11.90
2019-03-28T19:00:12.193Z,12.00
2019-03-28T19:02:40.662Z,11.90
2019-03-28T19:05:19.560Z,11.90
2019-03-28T19:07:39.338Z,11.90
2019-03-28T19:10:09.274Z,11.80
2019-03-28T19:12:37.916Z,11.90
2019-03-28T19:15:07.961Z,11.90
2019-03-28T19:17:36.893Z,12.10
2019-03-28T19:20:08.469Z,12.10
2019-03-28T19:22:38.412Z,12.00
2019-03-28T19:25:09.348Z,12.00
2019-03-28T19:27:38.460Z,11.90
2019-03-28T19:30:07.825Z,11.80
2019-03-28T19:32:36.439Z,11.80
2019-03-28T19:35:07.414Z,11.90
2019-03-28T19:37:37.129Z,11.90
2019-03-28T19:40:08.651Z,11.90
2019-03-28T19:42:37.618Z,11.80
2019-03-28T19:45:06.965Z,11.70
2019-03-28T19:47:35.453Z,11.60
2019-03-28T19:50:06.238Z,11.50
2019-03-28T19:52:34.685Z,11.40
2019-03-28T19:55:03.292Z,11.20
2019-03-28T19:57:31.764Z,11.20
2019-03-28T20:00:00.378Z,11.00
2019-03-28T20:02:29.025Z,10.90
2019-03-28T20:04:57.599Z,10.60
2019-03-28T20:07:26.022Z,10.60
2019-03-28T20:09:57.326Z,10.40
2019-03-28T20:12:25.507Z,10.50
2019-03-28T20:14:54.076Z,10.30
2019-03-28T20:17:22.733Z,10.10
2019-03-28T20:19:51.255Z,9.90
2019-03-28T20:22:19.768Z,9.70
2019-03-28T20:24:48.225Z,9.50
2019-03-28T20:27:16.690Z,9.30
2019-03-28T20:29:45.224Z,9.20
2019-03-28T20:32:13.810Z,9.10
2019-03-28T20:34:42.280Z,9.00
2019-03-28T20:37:11.652Z,8.90
2019-03-28T20:39:40.530Z,8.80
2019-03-28T20:42:10.499Z,8.70
2019-03-28T20:44:39.008Z,8.60
2019-03-28T20:47:08.415Z,8.50
2019-03-28T20:49:37.104Z,8.40
2019-03-28T20:52:05.612Z,8.30
2019-03-28T20:54:35.318Z,8.30
2019-03-28T20:57:03.875Z,8.20
2019-03-28T20:59:32.431Z,8.10
2019-03-28T21:02:01.031Z,8.00
2019-03-28T21:04:31.630Z,8.00
2019-03-28T21:06:59.745Z,7.90
2019-03-28T21:09:28.271Z,7.80
2019-03-28T21:11:56.709Z,7.80
2019-03-28T21:14:25.209Z,8.00
2019-03-28T21:16:53.778Z,7.90
2019-03-28T21:19:22.271Z,7.90
2019-03-28T21:21:50.751Z,7.90
2019-03-28T21:24:19.228Z,7.90
2019-03-28T21:26:47.733Z,7.80
2019-03-28T21:29:17.112Z,7.70
2019-03-28T21:31:50.210Z,7.70
2019-03-28T21:34:15.878Z,7.60
2019-03-28T21:36:44.503Z,7.50
2019-03-28T21:39:13.085Z,7.50
2019-03-28T21:41:41.502Z,7.60
2019-03-28T21:44:10.004Z,7.40
2019-03-28T21:46:38.599Z,7.40
2019-03-28T21:49:07.046Z,7.40
2019-03-28T21:51:36.230Z,7.50
2019-03-28T21:54:05.275Z,7.40
2019-03-28T21:56:33.892Z,7.50
2019-03-28T21:59:02.372Z,7.40
2019-03-28T22:01:30.787Z,7.80
2019-03-28T22:03:59.227Z,7.70
2019-03-28T22:06:27.687Z,7.60
2019-03-28T22:08:56.115Z,7.50
2019-03-28T22:11:24.581Z,7.50
2019-03-28T22:13:53.061Z,7.60
2019-03-28T22:16:40.924Z,7.60
2019-03-28T22:19:09.382Z,7.70
2019-03-28T22:21:37.833Z,7.90
2019-03-28T22:24:06.312Z,7.80
2019-03-28T22:26:34.779Z,7.80
2019-03-28T22:29:03.195Z,7.80
2019-03-28T22:31:31.688Z,7.70
2019-03-28T22:34:00.146Z,7.50
2019-03-28T22:36:28.621Z,7.40
2019-03-28T22:38:57.056Z,7.30
2019-03-28T22:41:25.509Z,7.20
2019-03-28T22:43:53.967Z,7.00
2019-03-28T22:46:22.421Z,7.00
2019-03-28T22:48:50.940Z,7.10
2019-03-28T22:51:19.508Z,7.10
2019-03-28T22:53:47.909Z,7.00
2019-03-28T22:56:16.359Z,6.90
2019-03-28T22:58:44.883Z,6.90
2019-03-28T23:01:13.448Z,6.90
2019-03-28T23:03:44.582Z,6.90
2019-03-28T23:06:13.047Z,6.90
2019-03-28T23:08:41.653Z,6.90
2019-03-28T23:11:10.225Z,6.90
2019-03-28T23:13:38.718Z,6.90
2019-03-28T23:16:07.179Z,6.80
2019-03-28T23:18:35.657Z,6.70
2019-03-28T23:21:04.093Z,6.60
2019-03-28T23:23:32.514Z,6.50
2019-03-28T23:26:01.009Z,6.50
2019-03-28T23:28:29.509Z,6.40
2019-03-28T23:30:58.086Z,6.40
2019-03-28T23:33:26.547Z,6.30
2019-03-28T23:35:55.053Z,6.30
2019-03-28T23:38:23.587Z,6.20
2019-03-28T23:40:52.042Z,6.10
2019-03-28T23:43:20.500Z,6.00
2019-03-28T23:45:49.040Z,6.00
2019-03-28T23:48:17.503Z,6.00
2019-03-28T23:50:45.931Z,5.90
2019-03-28T23:53:14.393Z,6.00
2019-03-28T23:55:42.911Z,5.90
2019-03-28T23:58:11.411Z,5.90
